sensor_id;sensor_type;location;lat;lon;timestamp;P1;durP1;ratioP1;P2;durP2;ratioP2
42944;SDS011;28584;42.636;23.294;2023-09-19T00:00:43;9.48;;;8.57;;
42944;SDS011;28584;42.636;23.294;2023-09-19T00:03:09;10.48;;;9.38;;
42944;SDS011;28584;42.636;23.294;2023-09-19T00:05:37;10.82;;;9.57;;
42944;SDS011;28584;42.636;23.294;2023-09-19T00:08:03;9.73;;;8.73;;
42944;SDS011;28584;42.636;23.294;2023-09-19T00:10:29;11.18;;;10.02;;
42944;SDS011;28584;42.636;23.294;2023-09-19T00:12:56;11.00;;;9.70;;
42944;SDS011;28584;42.636;23.294;2023-09-19T00:15:25;11.60;;;9.50;;
42944;SDS011;28584;42.636;23.294;2023-09-19T00:17:53;12.35;;;9.15;;
42944;SDS011;28584;42.636;23.294;2023-09-19T00:20:19;12.20;;;10.02;;
42944;SDS011;28584;42.636;23.294;2023-09-19T00:22:46;11.07;;;9.50;;
42944;SDS011;28584;42.636;23.294;2023-09-19T00:25:11;12.55;;;9.98;;
42944;SDS011;28584;42.636;23.294;2023-09-19T00:27:38;12.30;;;9.20;;
42944;SDS011;28584;42.636;23.294;2023-09-19T00:30:10;11.30;;;9.90;;
42944;SDS011;28584;42.636;23.294;2023-09-19T00:32:46;10.25;;;9.05;;
42944;SDS011;28584;42.636;23.294;2023-09-19T00:35:13;11.57;;;9.05;;
42944;SDS011;28584;42.636;23.294;2023-09-19T00:37:40;10.20;;;9.20;;
42944;SDS011;28584;42.636;23.294;2023-09-19T00:40:06;10.40;;;9.35;;
42944;SDS011;28584;42.636;23.294;2023-09-19T00:42:37;11.93;;;9.45;;
42944;SDS011;28584;42.636;23.294;2023-09-19T00:45:06;10.38;;;9.38;;
42944;SDS011;28584;42.636;23.294;2023-09-19T00:47:35;12.50;;;10.55;;
42944;SDS011;28584;42.636;23.294;2023-09-19T00:50:02;11.13;;;9.90;;
42944;SDS011;28584;42.636;23.294;2023-09-19T00:52:32;12.60;;;10.90;;
42944;SDS011;28584;42.636;23.294;2023-09-19T00:54:58;15.02;;;10.30;;
42944;SDS011;28584;42.636;23.294;2023-09-19T00:57:25;11.00;;;9.90;;
42944;SDS011;28584;42.636;23.294;2023-09-19T00:59:50;11.95;;;10.73;;
42944;SDS011;28584;42.636;23.294;2023-09-19T01:02:19;11.88;;;10.13;;
42944;SDS011;28584;42.636;23.294;2023-09-19T01:04:46;11.57;;;10.35;;
42944;SDS011;28584;42.636;23.294;2023-09-19T01:07:11;13.05;;;10.95;;
42944;SDS011;28584;42.636;23.294;2023-09-19T01:09:39;10.77;;;9.73;;
42944;SDS011;28584;42.636;23.294;2023-09-19T01:12:05;15.38;;;11.45;;
42944;SDS011;28584;42.636;23.294;2023-09-19T01:17:41;11.77;;;10.45;;
42944;SDS011;28584;42.636;23.294;2023-09-19T01:23:39;12.38;;;10.80;;
42944;SDS011;28584;42.636;23.294;2023-09-19T01:31:38;15.27;;;11.85;;
42944;SDS011;28584;42.636;23.294;2023-09-19T01:34:07;17.33;;;11.50;;
42944;SDS011;28584;42.636;23.294;2023-09-19T01:36:36;13.25;;;11.25;;
42944;SDS011;28584;42.636;23.294;2023-09-19T01:39:06;17.75;;;11.02;;
42944;SDS011;28584;42.636;23.294;2023-09-19T01:44:06;12.68;;;11.18;;
42944;SDS011;28584;42.636;23.294;2023-09-19T01:46:41;12.13;;;10.82;;
42944;SDS011;28584;42.636;23.294;2023-09-19T01:49:27;14.43;;;10.82;;
42944;SDS011;28584;42.636;23.294;2023-09-19T01:52:11;15.85;;;11.68;;
42944;SDS011;28584;42.636;23.294;2023-09-19T01:54:56;16.27;;;12.13;;
42944;SDS011;28584;42.636;23.294;2023-09-19T01:57:44;12.52;;;10.88;;
42944;SDS011;28584;42.636;23.294;2023-09-19T02:00:36;12.77;;;11.23;;
42944;SDS011;28584;42.636;23.294;2023-09-19T02:03:03;12.68;;;11.35;;
42944;SDS011;28584;42.636;23.294;2023-09-19T02:05:29;13.23;;;11.10;;
42944;SDS011;28584;42.636;23.294;2023-09-19T02:07:54;15.50;;;11.43;;
42944;SDS011;28584;42.636;23.294;2023-09-19T02:10:21;12.88;;;11.13;;
42944;SDS011;28584;42.636;23.294;2023-09-19T02:12:46;14.30;;;11.50;;
42944;SDS011;28584;42.636;23.294;2023-09-19T02:15:12;13.57;;;10.63;;
42944;SDS011;28584;42.636;23.294;2023-09-19T02:17:37;12.10;;;10.77;;
42944;SDS011;28584;42.636;23.294;2023-09-19T02:20:03;13.38;;;11.43;;
42944;SDS011;28584;42.636;23.294;2023-09-19T02:22:36;13.55;;;11.40;;
42944;SDS011;28584;42.636;23.294;2023-09-19T02:25:02;13.07;;;10.93;;
42944;SDS011;28584;42.636;23.294;2023-09-19T02:27:30;13.93;;;10.70;;
42944;SDS011;28584;42.636;23.294;2023-09-19T02:29:55;12.40;;;11.00;;
42944;SDS011;28584;42.636;23.294;2023-09-19T02:32:21;15.60;;;11.45;;
42944;SDS011;28584;42.636;23.294;2023-09-19T02:34:48;12.45;;;10.85;;
42944;SDS011;28584;42.636;23.294;2023-09-19T02:37:13;14.30;;;10.88;;
42944;SDS011;28584;42.636;23.294;2023-09-19T02:39:41;16.73;;;11.43;;
42944;SDS011;28584;42.636;23.294;2023-09-19T02:42:06;15.48;;;11.43;;
42944;SDS011;28584;42.636;23.294;2023-09-19T02:44:32;13.30;;;11.82;;
42944;SDS011;28584;42.636;23.294;2023-09-19T02:46:58;13.20;;;11.73;;
42944;SDS011;28584;42.636;23.294;2023-09-19T02:49:24;15.55;;;11.60;;
42944;SDS011;28584;42.636;23.294;2023-09-19T02:51:50;15.25;;;13.00;;
42944;SDS011;28584;42.636;23.294;2023-09-19T02:54:15;16.25;;;13.32;;
42944;SDS011;28584;42.636;23.294;2023-09-19T02:56:42;14.80;;;13.15;;
42944;SDS011;28584;42.636;23.294;2023-09-19T02:59:08;18.60;;;13.63;;
42944;SDS011;28584;42.636;23.294;2023-09-19T03:01:35;15.25;;;13.45;;
42944;SDS011;28584;42.636;23.294;2023-09-19T03:04:02;15.57;;;13.98;;
42944;SDS011;28584;42.636;23.294;2023-09-19T03:06:27;17.48;;;13.90;;
42944;SDS011;28584;42.636;23.294;2023-09-19T03:08:54;17.50;;;14.15;;
42944;SDS011;28584;42.636;23.294;2023-09-19T03:11:20;16.35;;;14.65;;
42944;SDS011;28584;42.636;23.294;2023-09-19T03:13:51;16.05;;;14.18;;
42944;SDS011;28584;42.636;23.294;2023-09-19T03:16:18;14.93;;;13.38;;
42944;SDS011;28584;42.636;23.294;2023-09-19T03:18:46;16.85;;;13.40;;
42944;SDS011;28584;42.636;23.294;2023-09-19T03:21:14;14.20;;;12.60;;
42944;SDS011;28584;42.636;23.294;2023-09-19T03:23:42;17.13;;;13.18;;
42944;SDS011;28584;42.636;23.294;2023-09-19T03:26:13;15.45;;;13.35;;
42944;SDS011;28584;42.636;23.294;2023-09-19T03:28:42;14.57;;;13.05;;
42944;SDS011;28584;42.636;23.294;2023-09-19T03:31:08;15.18;;;12.60;;
42944;SDS011;28584;42.636;23.294;2023-09-19T03:33:34;14.30;;;12.52;;
42944;SDS011;28584;42.636;23.294;2023-09-19T03:36:00;15.20;;;13.27;;
42944;SDS011;28584;42.636;23.294;2023-09-19T03:38:30;17.30;;;13.35;;
42944;SDS011;28584;42.636;23.294;2023-09-19T03:40:56;15.07;;;12.98;;
42944;SDS011;28584;42.636;23.294;2023-09-19T03:43:22;15.20;;;13.55;;
42944;SDS011;28584;42.636;23.294;2023-09-19T03:45:47;14.55;;;12.98;;
42944;SDS011;28584;42.636;23.294;2023-09-19T03:48:13;14.75;;;13.27;;
42944;SDS011;28584;42.636;23.294;2023-09-19T03:50:39;18.45;;;12.27;;
42944;SDS011;28584;42.636;23.294;2023-09-19T03:53:05;14.98;;;13.40;;
42944;SDS011;28584;42.636;23.294;2023-09-19T03:55:32;18.58;;;13.00;;
42944;SDS011;28584;42.636;23.294;2023-09-19T03:58:00;17.52;;;13.85;;
42944;SDS011;28584;42.636;23.294;2023-09-19T04:00:29;15.27;;;13.23;;
42944;SDS011;28584;42.636;23.294;2023-09-19T04:02:54;17.38;;;14.68;;
42944;SDS011;28584;42.636;23.294;2023-09-19T04:05:21;23.45;;;13.63;;
42944;SDS011;28584;42.636;23.294;2023-09-19T04:07:47;22.48;;;17.98;;
42944;SDS011;28584;42.636;23.294;2023-09-19T04:10:13;65.28;;;46.72;;
42944;SDS011;28584;42.636;23.294;2023-09-19T04:12:39;21.08;;;17.23;;
42944;SDS011;28584;42.636;23.294;2023-09-19T04:15:05;17.88;;;14.43;;
42944;SDS011;28584;42.636;23.294;2023-09-19T04:17:31;16.23;;;13.05;;
42944;SDS011;28584;42.636;23.294;2023-09-19T04:20:00;17.15;;;12.85;;
42944;SDS011;28584;42.636;23.294;2023-09-19T04:22:26;17.90;;;13.77;;
42944;SDS011;28584;42.636;23.294;2023-09-19T04:24:51;20.33;;;14.32;;
42944;SDS011;28584;42.636;23.294;2023-09-19T04:27:16;17.10;;;14.10;;
42944;SDS011;28584;42.636;23.294;2023-09-19T04:29:43;20.10;;;14.18;;
42944;SDS011;28584;42.636;23.294;2023-09-19T04:32:09;15.50;;;13.80;;
42944;SDS011;28584;42.636;23.294;2023-09-19T04:34:35;16.13;;;13.07;;
42944;SDS011;28584;42.636;23.294;2023-09-19T04:37:00;15.40;;;13.80;;
42944;SDS011;28584;42.636;23.294;2023-09-19T04:39:27;15.77;;;13.65;;
42944;SDS011;28584;42.636;23.294;2023-09-19T04:41:52;14.38;;;12.85;;
42944;SDS011;28584;42.636;23.294;2023-09-19T04:44:18;14.38;;;11.82;;
42944;SDS011;28584;42.636;23.294;2023-09-19T04:46:44;17.40;;;12.18;;
42944;SDS011;28584;42.636;23.294;2023-09-19T04:49:11;15.88;;;11.50;;
42944;SDS011;28584;42.636;23.294;2023-09-19T04:51:37;12.27;;;11.07;;
42944;SDS011;28584;42.636;23.294;2023-09-19T04:54:03;11.93;;;10.70;;
42944;SDS011;28584;42.636;23.294;2023-09-19T04:56:29;14.50;;;10.40;;
42944;SDS011;28584;42.636;23.294;2023-09-19T04:58:55;13.50;;;10.35;;
42944;SDS011;28584;42.636;23.294;2023-09-19T05:01:23;12.32;;;9.63;;
42944;SDS011;28584;42.636;23.294;2023-09-19T05:03:49;14.95;;;11.88;;
42944;SDS011;28584;42.636;23.294;2023-09-19T05:06:17;10.48;;;8.98;;
42944;SDS011;28584;42.636;23.294;2023-09-19T05:08:49;10.95;;;7.40;;
42944;SDS011;28584;42.636;23.294;2023-09-19T05:11:16;9.25;;;7.72;;
42944;SDS011;28584;42.636;23.294;2023-09-19T05:13:42;11.32;;;7.53;;
42944;SDS011;28584;42.636;23.294;2023-09-19T05:16:08;12.13;;;8.40;;
42944;SDS011;28584;42.636;23.294;2023-09-19T05:18:35;10.77;;;7.40;;
42944;SDS011;28584;42.636;23.294;2023-09-19T05:21:03;11.50;;;7.40;;
42944;SDS011;28584;42.636;23.294;2023-09-19T05:23:29;8.25;;;7.10;;
42944;SDS011;28584;42.636;23.294;2023-09-19T05:25:55;10.70;;;6.82;;
42944;SDS011;28584;42.636;23.294;2023-09-19T05:28:22;9.60;;;6.80;;
42944;SDS011;28584;42.636;23.294;2023-09-19T05:30:47;8.40;;;6.68;;
42944;SDS011;28584;42.636;23.294;2023-09-19T05:33:14;8.32;;;6.25;;
42944;SDS011;28584;42.636;23.294;2023-09-19T05:35:39;7.78;;;5.82;;
42944;SDS011;28584;42.636;23.294;2023-09-19T05:38:08;8.00;;;6.70;;
42944;SDS011;28584;42.636;23.294;2023-09-19T05:40:38;11.70;;;8.45;;
42944;SDS011;28584;42.636;23.294;2023-09-19T05:43:08;12.77;;;8.82;;
42944;SDS011;28584;42.636;23.294;2023-09-19T05:45:34;13.02;;;8.05;;
42944;SDS011;28584;42.636;23.294;2023-09-19T05:48:07;9.25;;;8.10;;
42944;SDS011;28584;42.636;23.294;2023-09-19T05:50:38;13.13;;;8.15;;
42944;SDS011;28584;42.636;23.294;2023-09-19T05:53:04;12.18;;;8.35;;
42944;SDS011;28584;42.636;23.294;2023-09-19T05:55:29;14.48;;;8.32;;
42944;SDS011;28584;42.636;23.294;2023-09-19T05:57:55;14.15;;;9.45;;
42944;SDS011;28584;42.636;23.294;2023-09-19T06:00:21;14.68;;;9.15;;
42944;SDS011;28584;42.636;23.294;2023-09-19T06:02:54;12.40;;;9.20;;
42944;SDS011;28584;42.636;23.294;2023-09-19T06:05:20;11.13;;;9.15;;
42944;SDS011;28584;42.636;23.294;2023-09-19T06:07:46;14.43;;;10.60;;
42944;SDS011;28584;42.636;23.294;2023-09-19T06:10:12;13.23;;;10.23;;
42944;SDS011;28584;42.636;23.294;2023-09-19T06:12:38;11.88;;;10.68;;
42944;SDS011;28584;42.636;23.294;2023-09-19T06:15:05;15.95;;;10.85;;
42944;SDS011;28584;42.636;23.294;2023-09-19T06:17:33;14.93;;;10.10;;
42944;SDS011;28584;42.636;23.294;2023-09-19T06:20:03;11.32;;;9.30;;
42944;SDS011;28584;42.636;23.294;2023-09-19T06:22:37;11.77;;;9.73;;
42944;SDS011;28584;42.636;23.294;2023-09-19T06:25:03;13.25;;;9.98;;
42944;SDS011;28584;42.636;23.294;2023-09-19T06:27:29;12.63;;;10.05;;
42944;SDS011;28584;42.636;23.294;2023-09-19T06:29:54;16.92;;;9.55;;
42944;SDS011;28584;42.636;23.294;2023-09-19T06:32:26;11.68;;;8.93;;
42944;SDS011;28584;42.636;23.294;2023-09-19T06:34:52;12.90;;;7.97;;
42944;SDS011;28584;42.636;23.294;2023-09-19T06:37:19;14.60;;;8.05;;
42944;SDS011;28584;42.636;23.294;2023-09-19T06:39:46;10.15;;;6.93;;
42944;SDS011;28584;42.636;23.294;2023-09-19T06:42:13;13.95;;;7.47;;
42944;SDS011;28584;42.636;23.294;2023-09-19T06:44:38;10.10;;;7.20;;
42944;SDS011;28584;42.636;23.294;2023-09-19T06:47:04;15.90;;;7.82;;
42944;SDS011;28584;42.636;23.294;2023-09-19T06:49:31;10.20;;;7.00;;
42944;SDS011;28584;42.636;23.294;2023-09-19T06:51:56;11.77;;;7.07;;
42944;SDS011;28584;42.636;23.294;2023-09-19T06:54:22;8.82;;;6.63;;
42944;SDS011;28584;42.636;23.294;2023-09-19T06:56:47;9.07;;;7.25;;
42944;SDS011;28584;42.636;23.294;2023-09-19T06:59:13;11.80;;;7.68;;
42944;SDS011;28584;42.636;23.294;2023-09-19T07:01:39;14.88;;;8.48;;
42944;SDS011;28584;42.636;23.294;2023-09-19T07:04:06;12.50;;;8.55;;
42944;SDS011;28584;42.636;23.294;2023-09-19T07:06:31;10.30;;;7.20;;
42944;SDS011;28584;42.636;23.294;2023-09-19T07:08:58;13.10;;;7.50;;
42944;SDS011;28584;42.636;23.294;2023-09-19T07:11:23;13.18;;;7.40;;
42944;SDS011;28584;42.636;23.294;2023-09-19T07:13:49;9.93;;;7.38;;
42944;SDS011;28584;42.636;23.294;2023-09-19T07:16:15;9.25;;;7.05;;
42944;SDS011;28584;42.636;23.294;2023-09-19T07:18:52;9.60;;;6.80;;
42944;SDS011;28584;42.636;23.294;2023-09-19T07:21:18;11.70;;;7.10;;
42944;SDS011;28584;42.636;23.294;2023-09-19T07:23:43;14.65;;;7.07;;
42944;SDS011;28584;42.636;23.294;2023-09-19T07:26:09;11.63;;;7.38;;
42944;SDS011;28584;42.636;23.294;2023-09-19T07:28:34;12.43;;;7.63;;
42944;SDS011;28584;42.636;23.294;2023-09-19T07:31:02;16.67;;;7.80;;
42944;SDS011;28584;42.636;23.294;2023-09-19T07:33:28;13.15;;;7.78;;
42944;SDS011;28584;42.636;23.294;2023-09-19T07:35:54;10.98;;;7.25;;
42944;SDS011;28584;42.636;23.294;2023-09-19T07:38:20;12.43;;;6.53;;
42944;SDS011;28584;42.636;23.294;2023-09-19T07:40:45;8.40;;;6.18;;
42944;SDS011;28584;42.636;23.294;2023-09-19T07:43:11;9.98;;;6.78;;
42944;SDS011;28584;42.636;23.294;2023-09-19T07:45:36;11.88;;;7.05;;
42944;SDS011;28584;42.636;23.294;2023-09-19T07:48:02;12.70;;;7.32;;
42944;SDS011;28584;42.636;23.294;2023-09-19T07:50:29;12.82;;;6.97;;
42944;SDS011;28584;42.636;23.294;2023-09-19T07:52:55;12.07;;;7.20;;
42944;SDS011;28584;42.636;23.294;2023-09-19T07:55:21;12.02;;;7.20;;
42944;SDS011;28584;42.636;23.294;2023-09-19T07:57:51;11.65;;;7.07;;
42944;SDS011;28584;42.636;23.294;2023-09-19T08:00:17;12.98;;;7.32;;
42944;SDS011;28584;42.636;23.294;2023-09-19T08:02:43;13.57;;;6.93;;
42944;SDS011;28584;42.636;23.294;2023-09-19T08:05:09;9.60;;;6.78;;
42944;SDS011;28584;42.636;23.294;2023-09-19T08:07:36;9.43;;;6.57;;
42944;SDS011;28584;42.636;23.294;2023-09-19T08:10:03;14.10;;;7.13;;
42944;SDS011;28584;42.636;23.294;2023-09-19T08:12:33;15.10;;;7.25;;
42944;SDS011;28584;42.636;23.294;2023-09-19T08:15:00;10.95;;;7.30;;
42944;SDS011;28584;42.636;23.294;2023-09-19T08:17:27;12.05;;;6.30;;
42944;SDS011;28584;42.636;23.294;2023-09-19T08:19:53;8.55;;;6.53;;
42944;SDS011;28584;42.636;23.294;2023-09-19T08:22:21;10.45;;;6.50;;
42944;SDS011;28584;42.636;23.294;2023-09-19T08:24:48;9.27;;;6.28;;
42944;SDS011;28584;42.636;23.294;2023-09-19T08:27:14;10.80;;;7.70;;
42944;SDS011;28584;42.636;23.294;2023-09-19T08:29:43;11.43;;;6.82;;
42944;SDS011;28584;42.636;23.294;2023-09-19T08:32:09;10.68;;;6.22;;
42944;SDS011;28584;42.636;23.294;2023-09-19T08:34:34;12.15;;;6.72;;
42944;SDS011;28584;42.636;23.294;2023-09-19T08:37:03;11.43;;;5.97;;
42944;SDS011;28584;42.636;23.294;2023-09-19T08:39:28;10.27;;;6.20;;
42944;SDS011;28584;42.636;23.294;2023-09-19T08:41:59;11.98;;;7.35;;
42944;SDS011;28584;42.636;23.294;2023-09-19T08:44:25;11.48;;;6.28;;
42944;SDS011;28584;42.636;23.294;2023-09-19T08:46:53;11.18;;;6.85;;
42944;SDS011;28584;42.636;23.294;2023-09-19T08:52:55;12.02;;;6.55;;
42944;SDS011;28584;42.636;23.294;2023-09-19T08:55:06;9.65;;;5.75;;
42944;SDS011;28584;42.636;23.294;2023-09-19T08:57:36;15.27;;;7.10;;
42944;SDS011;28584;42.636;23.294;2023-09-19T09:00:06;11.48;;;5.78;;
42944;SDS011;28584;42.636;23.294;2023-09-19T09:02:37;12.80;;;6.65;;
42944;SDS011;28584;42.636;23.294;2023-09-19T09:05:10;11.13;;;6.22;;
42944;SDS011;28584;42.636;23.294;2023-09-19T09:07:36;10.95;;;6.80;;
42944;SDS011;28584;42.636;23.294;2023-09-19T09:10:03;14.32;;;6.55;;
42944;SDS011;28584;42.636;23.294;2023-09-19T09:12:29;8.85;;;6.45;;
42944;SDS011;28584;42.636;23.294;2023-09-19T09:14:55;9.23;;;6.93;;
42944;SDS011;28584;42.636;23.294;2023-09-19T09:17:25;11.75;;;6.40;;
42944;SDS011;28584;42.636;23.294;2023-09-19T09:19:53;11.45;;;6.93;;
42944;SDS011;28584;42.636;23.294;2023-09-19T09:22:19;10.07;;;6.45;;
42944;SDS011;28584;42.636;23.294;2023-09-19T09:24:52;14.50;;;7.15;;
42944;SDS011;28584;42.636;23.294;2023-09-19T09:27:26;6.78;;;5.90;;
42944;SDS011;28584;42.636;23.294;2023-09-19T09:29:52;11.93;;;6.65;;
42944;SDS011;28584;42.636;23.294;2023-09-19T09:32:20;12.48;;;6.78;;
42944;SDS011;28584;42.636;23.294;2023-09-19T09:34:49;16.25;;;7.70;;
42944;SDS011;28584;42.636;23.294;2023-09-19T09:37:18;14.85;;;7.78;;
42944;SDS011;28584;42.636;23.294;2023-09-19T09:39:54;10.30;;;6.65;;
42944;SDS011;28584;42.636;23.294;2023-09-19T09:42:31;13.25;;;7.55;;
42944;SDS011;28584;42.636;23.294;2023-09-19T09:48:02;17.40;;;7.47;;
42944;SDS011;28584;42.636;23.294;2023-09-19T09:53:26;14.23;;;7.05;;
42944;SDS011;28584;42.636;23.294;2023-09-19T09:55:59;11.77;;;6.93;;
42944;SDS011;28584;42.636;23.294;2023-09-19T09:58:32;18.08;;;7.68;;
42944;SDS011;28584;42.636;23.294;2023-09-19T10:01:00;11.77;;;7.40;;
42944;SDS011;28584;42.636;23.294;2023-09-19T10:03:34;13.77;;;7.82;;
42944;SDS011;28584;42.636;23.294;2023-09-19T10:06:05;14.88;;;7.03;;
42944;SDS011;28584;42.636;23.294;2023-09-19T10:11:35;13.88;;;7.03;;
42944;SDS011;28584;42.636;23.294;2023-09-19T10:14:12;15.38;;;7.30;;
42944;SDS011;28584;42.636;23.294;2023-09-19T10:16:40;10.80;;;7.63;;
42944;SDS011;28584;42.636;23.294;2023-09-19T10:19:14;12.02;;;6.97;;
42944;SDS011;28584;42.636;23.294;2023-09-19T10:21:55;10.32;;;7.35;;
42944;SDS011;28584;42.636;23.294;2023-09-19T10:24:23;12.75;;;7.38;;
42944;SDS011;28584;42.636;23.294;2023-09-19T10:26:51;12.00;;;7.07;;
42944;SDS011;28584;42.636;23.294;2023-09-19T10:29:19;10.80;;;6.43;;
42944;SDS011;28584;42.636;23.294;2023-09-19T10:31:47;12.18;;;7.28;;
42944;SDS011;28584;42.636;23.294;2023-09-19T10:34:16;12.30;;;6.60;;
42944;SDS011;28584;42.636;23.294;2023-09-19T10:36:45;14.35;;;7.95;;
42944;SDS011;28584;42.636;23.294;2023-09-19T10:39:14;17.02;;;7.25;;
42944;SDS011;28584;42.636;23.294;2023-09-19T10:41:45;10.80;;;7.32;;
42944;SDS011;28584;42.636;23.294;2023-09-19T10:44:18;14.80;;;6.65;;
42944;SDS011;28584;42.636;23.294;2023-09-19T10:46:47;13.48;;;7.47;;
42944;SDS011;28584;42.636;23.294;2023-09-19T10:49:13;12.75;;;7.00;;
42944;SDS011;28584;42.636;23.294;2023-09-19T10:51:41;11.98;;;6.55;;
42944;SDS011;28584;42.636;23.294;2023-09-19T10:54:13;11.68;;;6.60;;
42944;SDS011;28584;42.636;23.294;2023-09-19T10:56:43;11.93;;;6.40;;
42944;SDS011;28584;42.636;23.294;2023-09-19T10:59:13;13.18;;;6.40;;
42944;SDS011;28584;42.636;23.294;2023-09-19T11:01:47;9.73;;;6.18;;
42944;SDS011;28584;42.636;23.294;2023-09-19T11:04:29;12.40;;;6.03;;
42944;SDS011;28584;42.636;23.294;2023-09-19T11:09:49;10.85;;;6.90;;
42944;SDS011;28584;42.636;23.294;2023-09-19T11:15:06;13.45;;;6.32;;
42944;SDS011;28584;42.636;23.294;2023-09-19T11:17:39;6.85;;;5.00;;
42944;SDS011;28584;42.636;23.294;2023-09-19T11:20:18;9.95;;;6.30;;
42944;SDS011;28584;42.636;23.294;2023-09-19T11:30:43;8.48;;;5.22;;
42944;SDS011;28584;42.636;23.294;2023-09-19T11:36:09;9.18;;;5.65;;
42944;SDS011;28584;42.636;23.294;2023-09-19T11:43:51;11.73;;;6.25;;
42944;SDS011;28584;42.636;23.294;2023-09-19T11:46:20;10.20;;;5.30;;
42944;SDS011;28584;42.636;23.294;2023-09-19T11:48:49;12.25;;;6.57;;
42944;SDS011;28584;42.636;23.294;2023-09-19T11:51:24;11.27;;;5.32;;
42944;SDS011;28584;42.636;23.294;2023-09-19T11:53:54;9.52;;;5.93;;
42944;SDS011;28584;42.636;23.294;2023-09-19T11:56:22;9.25;;;5.70;;
42944;SDS011;28584;42.636;23.294;2023-09-19T11:58:53;11.35;;;5.95;;
42944;SDS011;28584;42.636;23.294;2023-09-19T12:01:30;11.65;;;6.05;;
42944;SDS011;28584;42.636;23.294;2023-09-19T12:03:58;7.95;;;5.88;;
42944;SDS011;28584;42.636;23.294;2023-09-19T12:06:28;10.68;;;6.18;;
42944;SDS011;28584;42.636;23.294;2023-09-19T12:08:55;13.25;;;6.10;;
42944;SDS011;28584;42.636;23.294;2023-09-19T12:11:27;10.55;;;5.85;;
42944;SDS011;28584;42.636;23.294;2023-09-19T12:13:54;9.73;;;6.32;;
42944;SDS011;28584;42.636;23.294;2023-09-19T12:16:23;9.27;;;6.90;;
42944;SDS011;28584;42.636;23.294;2023-09-19T12:18:50;10.77;;;6.13;;
42944;SDS011;28584;42.636;23.294;2023-09-19T12:21:28;10.52;;;6.00;;
42944;SDS011;28584;42.636;23.294;2023-09-19T12:26:41;12.10;;;6.25;;
42944;SDS011;28584;42.636;23.294;2023-09-19T12:29:19;8.50;;;6.30;;
42944;SDS011;28584;42.636;23.294;2023-09-19T12:31:49;14.85;;;6.00;;
42944;SDS011;28584;42.636;23.294;2023-09-19T12:34:24;11.73;;;6.40;;
42944;SDS011;28584;42.636;23.294;2023-09-19T12:37:07;9.18;;;6.28;;
42944;SDS011;28584;42.636;23.294;2023-09-19T12:40:02;10.18;;;6.72;;
42944;SDS011;28584;42.636;23.294;2023-09-19T12:42:39;11.98;;;6.22;;
42944;SDS011;28584;42.636;23.294;2023-09-19T12:45:06;7.00;;;6.07;;
42944;SDS011;28584;42.636;23.294;2023-09-19T12:47:34;10.02;;;6.13;;
42944;SDS011;28584;42.636;23.294;2023-09-19T12:52:44;7.65;;;6.00;;
42944;SDS011;28584;42.636;23.294;2023-09-19T12:55:20;9.32;;;5.68;;
42944;SDS011;28584;42.636;23.294;2023-09-19T13:00:36;10.57;;;5.78;;
42944;SDS011;28584;42.636;23.294;2023-09-19T13:06:04;8.40;;;5.45;;
42944;SDS011;28584;42.636;23.294;2023-09-19T13:08:38;6.88;;;5.50;;
42944;SDS011;28584;42.636;23.294;2023-09-19T13:11:08;14.00;;;5.93;;
42944;SDS011;28584;42.636;23.294;2023-09-19T13:13:38;9.82;;;5.63;;
42944;SDS011;28584;42.636;23.294;2023-09-19T13:16:04;9.18;;;5.75;;
42944;SDS011;28584;42.636;23.294;2023-09-19T13:18:50;8.13;;;5.45;;
42944;SDS011;28584;42.636;23.294;2023-09-19T13:21:26;7.65;;;5.40;;
42944;SDS011;28584;42.636;23.294;2023-09-19T13:24:17;10.63;;;6.43;;
42944;SDS011;28584;42.636;23.294;2023-09-19T13:26:44;5.95;;;5.07;;
42944;SDS011;28584;42.636;23.294;2023-09-19T13:29:10;9.82;;;5.40;;
42944;SDS011;28584;42.636;23.294;2023-09-19T13:31:36;8.73;;;6.20;;
42944;SDS011;28584;42.636;23.294;2023-09-19T13:34:06;6.88;;;5.47;;
42944;SDS011;28584;42.636;23.294;2023-09-19T13:36:32;7.00;;;5.35;;
42944;SDS011;28584;42.636;23.294;2023-09-19T13:38:58;8.10;;;5.57;;
42944;SDS011;28584;42.636;23.294;2023-09-19T13:41:25;6.70;;;5.38;;
42944;SDS011;28584;42.636;23.294;2023-09-19T13:43:51;12.82;;;6.38;;
42944;SDS011;28584;42.636;23.294;2023-09-19T13:46:16;8.15;;;5.38;;
42944;SDS011;28584;42.636;23.294;2023-09-19T13:48:50;5.80;;;5.20;;
42944;SDS011;28584;42.636;23.294;2023-09-19T13:51:15;10.48;;;5.65;;
42944;SDS011;28584;42.636;23.294;2023-09-19T13:53:41;6.72;;;5.95;;
42944;SDS011;28584;42.636;23.294;2023-09-19T13:56:07;6.55;;;5.38;;
42944;SDS011;28584;42.636;23.294;2023-09-19T13:58:33;10.25;;;5.72;;
42944;SDS011;28584;42.636;23.294;2023-09-19T14:00:58;10.80;;;5.38;;
42944;SDS011;28584;42.636;23.294;2023-09-19T14:03:25;6.65;;;5.68;;
42944;SDS011;28584;42.636;23.294;2023-09-19T14:05:53;8.07;;;4.90;;
42944;SDS011;28584;42.636;23.294;2023-09-19T14:08:19;7.45;;;4.80;;
42944;SDS011;28584;42.636;23.294;2023-09-19T14:10:44;7.03;;;5.15;;
42944;SDS011;28584;42.636;23.294;2023-09-19T14:13:10;9.43;;;5.82;;
42944;SDS011;28584;42.636;23.294;2023-09-19T14:15:38;13.20;;;5.85;;
42944;SDS011;28584;42.636;23.294;2023-09-19T14:18:03;8.50;;;5.57;;
42944;SDS011;28584;42.636;23.294;2023-09-19T14:20:29;6.07;;;5.32;;
42944;SDS011;28584;42.636;23.294;2023-09-19T14:22:56;7.53;;;5.47;;
42944;SDS011;28584;42.636;23.294;2023-09-19T14:25:23;9.15;;;5.20;;
42944;SDS011;28584;42.636;23.294;2023-09-19T14:27:48;9.02;;;5.57;;
42944;SDS011;28584;42.636;23.294;2023-09-19T14:30:13;9.52;;;5.30;;
42944;SDS011;28584;42.636;23.294;2023-09-19T14:32:39;9.82;;;6.78;;
42944;SDS011;28584;42.636;23.294;2023-09-19T14:35:06;8.90;;;5.05;;
42944;SDS011;28584;42.636;23.294;2023-09-19T14:37:32;7.88;;;5.28;;
42944;SDS011;28584;42.636;23.294;2023-09-19T14:39:58;9.50;;;5.68;;
42944;SDS011;28584;42.636;23.294;2023-09-19T14:42:23;9.55;;;5.13;;
42944;SDS011;28584;42.636;23.294;2023-09-19T14:44:49;6.85;;;5.38;;
42944;SDS011;28584;42.636;23.294;2023-09-19T14:47:15;8.15;;;5.65;;
42944;SDS011;28584;42.636;23.294;2023-09-19T14:49:41;11.13;;;6.25;;
42944;SDS011;28584;42.636;23.294;2023-09-19T14:52:08;6.03;;;5.32;;
42944;SDS011;28584;42.636;23.294;2023-09-19T14:54:34;12.55;;;6.63;;
42944;SDS011;28584;42.636;23.294;2023-09-19T14:57:00;11.52;;;7.05;;
42944;SDS011;28584;42.636;23.294;2023-09-19T14:59:33;9.02;;;5.68;;
42944;SDS011;28584;42.636;23.294;2023-09-19T15:02:02;8.02;;;6.28;;
42944;SDS011;28584;42.636;23.294;2023-09-19T15:04:29;9.00;;;7.43;;
42944;SDS011;28584;42.636;23.294;2023-09-19T15:06:54;13.50;;;6.72;;
42944;SDS011;28584;42.636;23.294;2023-09-19T15:09:20;7.22;;;6.20;;
42944;SDS011;28584;42.636;23.294;2023-09-19T15:11:49;8.75;;;6.78;;
42944;SDS011;28584;42.636;23.294;2023-09-19T15:14:14;11.30;;;8.18;;
42944;SDS011;28584;42.636;23.294;2023-09-19T15:16:40;8.35;;;6.63;;
42944;SDS011;28584;42.636;23.294;2023-09-19T15:19:08;12.38;;;6.88;;
42944;SDS011;28584;42.636;23.294;2023-09-19T15:21:35;8.35;;;6.53;;
42944;SDS011;28584;42.636;23.294;2023-09-19T15:24:02;9.93;;;6.57;;
42944;SDS011;28584;42.636;23.294;2023-09-19T15:26:28;10.13;;;6.65;;